sensor_id;sensor_type;location;lat;lon;timestamp;temperature;humidity
25208;DHT22;13153;52.316;21.166;2022-11-06T00:01:55;9.80;99.90
25208;DHT22;13153;52.316;21.166;2022-11-06T00:04:21;9.80;99.90
25208;DHT22;13153;52.316;21.166;2022-11-06T00:06:46;9.80;99.90
25208;DHT22;13153;52.316;21.166;2022-11-06T00:09:13;9.80;99.90
25208;DHT22;13153;52.316;21.166;2022-11-06T00:11:41;9.80;99.90
25208;DHT22;13153;52.316;21.166;2022-11-06T00:14:08;9.80;99.90
25208;DHT22;13153;52.316;21.166;2022-11-06T00:16:37;9.80;99.90
25208;DHT22;13153;52.316;21.166;2022-11-06T00:19:05;9.80;99.90
25208;DHT22;13153;52.316;21.166;2022-11-06T00:21:32;9.80;99.90
25208;DHT22;13153;52.316;21.166;2022-11-06T00:24:00;9.80;99.90
25208;DHT22;13153;52.316;21.166;2022-11-06T00:26:28;9.70;99.90
25208;DHT22;13153;52.316;21.166;2022-11-06T00:28:55;9.70;99.90
25208;DHT22;13153;52.316;21.166;2022-11-06T00:31:27;9.70;99.90
25208;DHT22;13153;52.316;21.166;2022-11-06T00:33:56;9.80;99.90
25208;DHT22;13153;52.316;21.166;2022-11-06T00:36:24;9.70;99.90
25208;DHT22;13153;52.316;21.166;2022-11-06T00:38:53;9.80;99.90
25208;DHT22;13153;52.316;21.166;2022-11-06T00:41:20;9.70;99.90
25208;DHT22;13153;52.316;21.166;2022-11-06T00:43:56;9.70;99.90
25208;DHT22;13153;52.316;21.166;2022-11-06T00:46:25;9.70;99.90
25208;DHT22;13153;52.316;21.166;2022-11-06T00:48:52;9.70;99.90
25208;DHT22;13153;52.316;21.166;2022-11-06T00:51:21;9.70;99.90
25208;DHT22;13153;52.316;21.166;2022-11-06T00:53:57;9.70;99.90
25208;DHT22;13153;52.316;21.166;2022-11-06T00:56:24;9.60;99.90
25208;DHT22;13153;52.316;21.166;2022-11-06T00:58:52;9.60;99.90
25208;DHT22;13153;52.316;21.166;2022-11-06T01:01:21;9.60;99.90
25208;DHT22;13153;52.316;21.166;2022-11-06T01:03:57;9.60;99.90
25208;DHT22;13153;52.316;21.166;2022-11-06T01:06:27;9.60;99.90
25208;DHT22;13153;52.316;21.166;2022-11-06T01:08:56;9.60;99.90
25208;DHT22;13153;52.316;21.166;2022-11-06T01:13:54;9.60;99.90
25208;DHT22;13153;52.316;21.166;2022-11-06T01:16:22;9.50;99.90
25208;DHT22;13153;52.316;21.166;2022-11-06T01:18:49;9.50;99.90
25208;DHT22;13153;52.316;21.166;2022-11-06T01:21:32;9.50;99.90
25208;DHT22;13153;52.316;21.166;2022-11-06T01:24:08;9.50;99.90
25208;DHT22;13153;52.316;21.166;2022-11-06T01:26:35;9.50;99.90
25208;DHT22;13153;52.316;21.166;2022-11-06T01:29:03;9.50;99.90
25208;DHT22;13153;52.316;21.166;2022-11-06T01:31:31;9.50;99.90
25208;DHT22;13153;52.316;21.166;2022-11-06T01:33:59;9.50;99.90
25208;DHT22;13153;52.316;21.166;2022-11-06T01:36:27;9.50;99.90
25208;DHT22;13153;52.316;21.166;2022-11-06T01:38:55;9.40;99.90
25208;DHT22;13153;52.316;21.166;2022-11-06T01:41:36;9.50;99.90
25208;DHT22;13153;52.316;21.166;2022-11-06T01:47:37;9.40;99.90
25208;DHT22;13153;52.316;21.166;2022-11-06T01:50:08;9.40;99.90
25208;DHT22;13153;52.316;21.166;2022-11-06T01:52:37;9.40;99.90
25208;DHT22;13153;52.316;21.166;2022-11-06T01:55:13;9.40;99.90
25208;DHT22;13153;52.316;21.166;2022-11-06T01:57:45;9.30;99.90
25208;DHT22;13153;52.316;21.166;2022-11-06T02:00:12;9.30;99.90
25208;DHT22;13153;52.316;21.166;2022-11-06T02:02:39;9.30;99.90
25208;DHT22;13153;52.316;21.166;2022-11-06T02:05:06;9.30;99.90
25208;DHT22;13153;52.316;21.166;2022-11-06T02:07:33;9.30;99.90
25208;DHT22;13153;52.316;21.166;2022-11-06T02:10:00;9.30;99.90
25208;DHT22;13153;52.316;21.166;2022-11-06T02:27:17;9.10;99.90
25208;DHT22;13153;52.316;21.166;2022-11-06T02:30:03;9.10;99.90
25208;DHT22;13153;52.316;21.166;2022-11-06T02:33:01;9.10;99.90
25208;DHT22;13153;52.316;21.166;2022-11-06T02:35:54;9.10;99.90
25208;DHT22;13153;52.316;21.166;2022-11-06T02:38:36;9.10;99.90
25208;DHT22;13153;52.316;21.166;2022-11-06T02:41:10;9.00;99.90
25208;DHT22;13153;52.316;21.166;2022-11-06T02:43:58;9.00;99.90
25208;DHT22;13153;52.316;21.166;2022-11-06T02:46:33;9.00;99.90
25208;DHT22;13153;52.316;21.166;2022-11-06T02:49:20;9.00;99.90
25208;DHT22;13153;52.316;21.166;2022-11-06T02:51:57;9.00;99.90
25208;DHT22;13153;52.316;21.166;2022-11-06T02:54:31;8.90;99.90
25208;DHT22;13153;52.316;21.166;2022-11-06T02:57:06;8.90;99.90
25208;DHT22;13153;52.316;21.166;2022-11-06T02:59:55;8.90;99.90
25208;DHT22;13153;52.316;21.166;2022-11-06T03:02:35;8.80;99.90
25208;DHT22;13153;52.316;21.166;2022-11-06T03:06:09;8.80;99.90
25208;DHT22;13153;52.316;21.166;2022-11-06T03:16:58;8.70;99.90
25208;DHT22;13153;52.316;21.166;2022-11-06T03:19:33;8.60;99.90
25208;DHT22;13153;52.316;21.166;2022-11-06T03:22:32;8.60;99.90
25208;DHT22;13153;52.316;21.166;2022-11-06T03:25:17;8.60;99.90
25208;DHT22;13153;52.316;21.166;2022-11-06T03:28:00;8.50;99.90
25208;DHT22;13153;52.316;21.166;2022-11-06T03:30:35;8.50;99.90
25208;DHT22;13153;52.316;21.166;2022-11-06T03:33:15;8.50;99.90
25208;DHT22;13153;52.316;21.166;2022-11-06T03:36:12;8.50;99.90
25208;DHT22;13153;52.316;21.166;2022-11-06T03:38:47;8.50;99.90
25208;DHT22;13153;52.316;21.166;2022-11-06T03:41:25;8.50;99.90
25208;DHT22;13153;52.316;21.166;2022-11-06T03:44:02;8.50;99.90
25208;DHT22;13153;52.316;21.166;2022-11-06T03:46:32;8.50;99.90
25208;DHT22;13153;52.316;21.166;2022-11-06T03:49:08;8.40;99.90
25208;DHT22;13153;52.316;21.166;2022-11-06T03:51:48;8.40;99.90
25208;DHT22;13153;52.316;21.166;2022-11-06T03:54:28;8.40;99.90
25208;DHT22;13153;52.316;21.166;2022-11-06T03:57:18;8.40;99.90
25208;DHT22;13153;52.316;21.166;2022-11-06T03:59:51;8.40;99.90
25208;DHT22;13153;52.316;21.166;2022-11-06T04:02:21;8.30;99.90
25208;DHT22;13153;52.316;21.166;2022-11-06T04:07:48;8.30;99.90
25208;DHT22;13153;52.316;21.166;2022-11-06T04:10:40;8.20;99.90
25208;DHT22;13153;52.316;21.166;2022-11-06T04:13:29;8.20;99.90
25208;DHT22;13153;52.316;21.166;2022-11-06T04:16:17;8.10;99.90
25208;DHT22;13153;52.316;21.166;2022-11-06T04:18:43;8.10;99.90
25208;DHT22;13153;52.316;21.166;2022-11-06T04:24:05;8.00;99.90
25208;DHT22;13153;52.316;21.166;2022-11-06T04:30:15;8.00;99.90
25208;DHT22;13153;52.316;21.166;2022-11-06T04:33:09;7.90;99.90
25208;DHT22;13153;52.316;21.166;2022-11-06T04:41:15;7.80;99.90
25208;DHT22;13153;52.316;21.166;2022-11-06T04:44:08;7.80;99.90
25208;DHT22;13153;52.316;21.166;2022-11-06T04:46:59;7.70;99.90
25208;DHT22;13153;52.316;21.166;2022-11-06T04:49:30;7.70;99.90
25208;DHT22;13153;52.316;21.166;2022-11-06T04:52:01;7.70;99.90
25208;DHT22;13153;52.316;21.166;2022-11-06T04:54:31;7.70;99.90
25208;DHT22;13153;52.316;21.166;2022-11-06T04:57:01;7.70;99.90
25208;DHT22;13153;52.316;21.166;2022-11-06T04:59:29;7.70;99.90
25208;DHT22;13153;52.316;21.166;2022-11-06T05:01:59;7.70;99.90
25208;DHT22;13153;52.316;21.166;2022-11-06T05:04:25;7.70;99.90
25208;DHT22;13153;52.316;21.166;2022-11-06T05:06:51;7.80;99.90
25208;DHT22;13153;52.316;21.166;2022-11-06T05:09:17;7.70;99.90
25208;DHT22;13153;52.316;21.166;2022-11-06T05:11:42;7.70;99.90
25208;DHT22;13153;52.316;21.166;2022-11-06T05:14:08;7.70;99.90
25208;DHT22;13153;52.316;21.166;2022-11-06T05:16:34;7.70;99.90
25208;DHT22;13153;52.316;21.166;2022-11-06T05:19:00;7.70;99.90
25208;DHT22;13153;52.316;21.166;2022-11-06T05:21:26;7.70;99.90
25208;DHT22;13153;52.316;21.166;2022-11-06T05:24:10;7.70;99.90
25208;DHT22;13153;52.316;21.166;2022-11-06T05:26:36;7.70;99.90
25208;DHT22;13153;52.316;21.166;2022-11-06T05:29:02;7.70;99.90
25208;DHT22;13153;52.316;21.166;2022-11-06T05:31:28;7.70;99.90
25208;DHT22;13153;52.316;21.166;2022-11-06T05:33:54;7.70;99.90
25208;DHT22;13153;52.316;21.166;2022-11-06T05:36:19;7.70;99.90
25208;DHT22;13153;52.316;21.166;2022-11-06T05:38:45;7.70;99.90
25208;DHT22;13153;52.316;21.166;2022-11-06T05:41:11;7.60;99.90
25208;DHT22;13153;52.316;21.166;2022-11-06T05:43:37;7.60;99.90
25208;DHT22;13153;52.316;21.166;2022-11-06T05:46:02;7.60;99.90
25208;DHT22;13153;52.316;21.166;2022-11-06T05:48:29;7.60;99.90
25208;DHT22;13153;52.316;21.166;2022-11-06T05:51:05;7.50;99.90
25208;DHT22;13153;52.316;21.166;2022-11-06T05:53:34;7.50;99.90
25208;DHT22;13153;52.316;21.166;2022-11-06T05:56:01;7.50;99.90
25208;DHT22;13153;52.316;21.166;2022-11-06T05:58:28;7.50;99.90
25208;DHT22;13153;52.316;21.166;2022-11-06T06:00:54;7.50;99.90
25208;DHT22;13153;52.316;21.166;2022-11-06T06:03:21;7.50;99.90
25208;DHT22;13153;52.316;21.166;2022-11-06T06:05:47;7.40;99.90
25208;DHT22;13153;52.316;21.166;2022-11-06T06:08:13;7.40;99.90
25208;DHT22;13153;52.316;21.166;2022-11-06T06:10:44;7.40;99.90
25208;DHT22;13153;52.316;21.166;2022-11-06T06:13:12;7.40;99.90
25208;DHT22;13153;52.316;21.166;2022-11-06T06:15:39;7.40;99.90
25208;DHT22;13153;52.316;21.166;2022-11-06T06:18:07;7.40;99.90
25208;DHT22;13153;52.316;21.166;2022-11-06T06:20:34;7.40;99.90
25208;DHT22;13153;52.316;21.166;2022-11-06T06:23:01;7.50;99.90
25208;DHT22;13153;52.316;21.166;2022-11-06T06:25:28;7.50;99.90
25208;DHT22;13153;52.316;21.166;2022-11-06T06:27:55;7.60;99.90
25208;DHT22;13153;52.316;21.166;2022-11-06T06:30:21;7.70;99.90
25208;DHT22;13153;52.316;21.166;2022-11-06T06:32:49;7.80;99.90
25208;DHT22;13153;52.316;21.166;2022-11-06T06:35:15;7.90;99.90
25208;DHT22;13153;52.316;21.166;2022-11-06T06:37:52;8.10;99.90
25208;DHT22;13153;52.316;21.166;2022-11-06T06:40:20;8.30;99.90
25208;DHT22;13153;52.316;21.166;2022-11-06T06:42:47;8.60;99.90
25208;DHT22;13153;52.316;21.166;2022-11-06T06:45:14;8.90;99.90
25208;DHT22;13153;52.316;21.166;2022-11-06T06:47:40;9.20;99.90
25208;DHT22;13153;52.316;21.166;2022-11-06T06:50:07;9.60;99.90
25208;DHT22;13153;52.316;21.166;2022-11-06T06:52:33;9.80;99.90
25208;DHT22;13153;52.316;21.166;2022-11-06T06:54:59;10.10;99.90
25208;DHT22;13153;52.316;21.166;2022-11-06T06:57:24;10.30;99.90
25208;DHT22;13153;52.316;21.166;2022-11-06T06:59:50;10.50;99.90
25208;DHT22;13153;52.316;21.166;2022-11-06T07:02:16;10.70;99.90
25208;DHT22;13153;52.316;21.166;2022-11-06T07:04:42;10.90;99.90
25208;DHT22;13153;52.316;21.166;2022-11-06T07:07:07;11.10;99.90
25208;DHT22;13153;52.316;21.166;2022-11-06T07:09:33;11.20;99.90
25208;DHT22;13153;52.316;21.166;2022-11-06T07:11:59;11.20;99.90
25208;DHT22;13153;52.316;21.166;2022-11-06T07:14:25;11.10;99.90
25208;DHT22;13153;52.316;21.166;2022-11-06T07:16:50;11.00;99.90
25208;DHT22;13153;52.316;21.166;2022-11-06T07:19:16;10.70;99.90
25208;DHT22;13153;52.316;21.166;2022-11-06T07:21:42;10.50;99.90
25208;DHT22;13153;52.316;21.166;2022-11-06T07:24:08;10.30;99.90
25208;DHT22;13153;52.316;21.166;2022-11-06T07:26:34;10.10;99.90
25208;DHT22;13153;52.316;21.166;2022-11-06T07:29:00;9.90;99.90
25208;DHT22;13153;52.316;21.166;2022-11-06T07:31:26;9.80;99.90
25208;DHT22;13153;52.316;21.166;2022-11-06T07:33:51;9.70;99.90
25208;DHT22;13153;52.316;21.166;2022-11-06T07:36:17;9.70;99.90
25208;DHT22;13153;52.316;21.166;2022-11-06T07:38:43;9.60;99.90
25208;DHT22;13153;52.316;21.166;2022-11-06T07:41:11;9.60;99.90
25208;DHT22;13153;52.316;21.166;2022-11-06T07:43:39;9.60;99.90
25208;DHT22;13153;52.316;21.166;2022-11-06T07:46:08;9.60;99.90
25208;DHT22;13153;52.316;21.166;2022-11-06T07:48:35;9.60;99.90
25208;DHT22;13153;52.316;21.166;2022-11-06T07:51:03;9.70;99.90
25208;DHT22;13153;52.316;21.166;2022-11-06T07:53:31;9.70;99.90
25208;DHT22;13153;52.316;21.166;2022-11-06T07:55:57;9.70;99.90
25208;DHT22;13153;52.316;21.166;2022-11-06T07:58:23;9.60;99.90
25208;DHT22;13153;52.316;21.166;2022-11-06T08:00:51;9.60;99.90
25208;DHT22;13153;52.316;21.166;2022-11-06T08:03:18;9.60;99.90
25208;DHT22;13153;52.316;21.166;2022-11-06T08:05:45;9.70;99.90
25208;DHT22;13153;52.316;21.166;2022-11-06T08:08:11;9.70;99.90
25208;DHT22;13153;52.316;21.166;2022-11-06T08:10:38;9.70;99.90
25208;DHT22;13153;52.316;21.166;2022-11-06T08:13:16;9.70;99.90
25208;DHT22;13153;52.316;21.166;2022-11-06T08:15:43;9.70;99.90
25208;DHT22;13153;52.316;21.166;2022-11-06T08:18:10;9.70;99.90
25208;DHT22;13153;52.316;21.166;2022-11-06T08:20:37;9.70;99.90
25208;DHT22;13153;52.316;21.166;2022-11-06T08:23:05;9.70;99.90
25208;DHT22;13153;52.316;21.166;2022-11-06T08:25:33;9.70;99.90
25208;DHT22;13153;52.316;21.166;2022-11-06T08:28:00;9.70;99.90
25208;DHT22;13153;52.316;21.166;2022-11-06T08:30:28;9.70;99.90
25208;DHT22;13153;52.316;21.166;2022-11-06T08:32:58;9.60;99.90
25208;DHT22;13153;52.316;21.166;2022-11-06T08:35:25;9.50;99.90
25208;DHT22;13153;52.316;21.166;2022-11-06T08:37:51;9.50;99.90
25208;DHT22;13153;52.316;21.166;2022-11-06T08:40:17;9.50;99.90
25208;DHT22;13153;52.316;21.166;2022-11-06T08:42:44;9.40;99.90
25208;DHT22;13153;52.316;21.166;2022-11-06T08:45:10;9.40;99.90
25208;DHT22;13153;52.316;21.166;2022-11-06T08:47:36;9.30;99.90
25208;DHT22;13153;52.316;21.166;2022-11-06T08:50:02;9.40;99.90
25208;DHT22;13153;52.316;21.166;2022-11-06T08:52:28;9.40;99.90
25208;DHT22;13153;52.316;21.166;2022-11-06T08:54:54;9.40;99.90
25208;DHT22;13153;52.316;21.166;2022-11-06T08:57:19;9.40;99.90
25208;DHT22;13153;52.316;21.166;2022-11-06T08:59:45;9.50;99.90
25208;DHT22;13153;52.316;21.166;2022-11-06T09:02:12;9.40;99.90
25208;DHT22;13153;52.316;21.166;2022-11-06T09:04:39;9.40;99.90
25208;DHT22;13153;52.316;21.166;2022-11-06T09:07:05;9.40;99.90
25208;DHT22;13153;52.316;21.166;2022-11-06T09:09:31;9.40;99.90
25208;DHT22;13153;52.316;21.166;2022-11-06T09:11:58;9.40;99.90
25208;DHT22;13153;52.316;21.166;2022-11-06T09:14:25;9.40;99.90
25208;DHT22;13153;52.316;21.166;2022-11-06T09:16:51;9.40;99.90
25208;DHT22;13153;52.316;21.166;2022-11-06T09:19:18;9.50;99.90
25208;DHT22;13153;52.316;21.166;2022-11-06T09:21:45;9.60;99.90
25208;DHT22;13153;52.316;21.166;2022-11-06T09:24:11;9.60;99.90
25208;DHT22;13153;52.316;21.166;2022-11-06T09:26:37;9.70;99.90
25208;DHT22;13153;52.316;21.166;2022-11-06T09:29:03;9.80;99.90
25208;DHT22;13153;52.316;21.166;2022-11-06T09:31:29;9.80;99.90
25208;DHT22;13153;52.316;21.166;2022-11-06T09:33:55;9.80;99.90
25208;DHT22;13153;52.316;21.166;2022-11-06T09:36:21;9.80;99.90
25208;DHT22;13153;52.316;21.166;2022-11-06T09:38:47;9.80;99.90
25208;DHT22;13153;52.316;21.166;2022-11-06T09:47:23;10.00;99.90
25208;DHT22;13153;52.316;21.166;2022-11-06T09:49:55;10.00;99.90
25208;DHT22;13153;52.316;21.166;2022-11-06T09:55:23;10.00;99.90
25208;DHT22;13153;52.316;21.166;2022-11-06T09:58:17;10.10;99.90
25208;DHT22;13153;52.316;21.166;2022-11-06T10:00:49;10.10;99.90
25208;DHT22;13153;52.316;21.166;2022-11-06T10:03:44;10.10;99.90
25208;DHT22;13153;52.316;21.166;2022-11-06T10:06:20;10.00;99.90
25208;DHT22;13153;52.316;21.166;2022-11-06T10:08:47;10.00;99.90
25208;DHT22;13153;52.316;21.166;2022-11-06T10:13:59;10.00;99.90
25208;DHT22;13153;52.316;21.166;2022-11-06T10:19:54;10.00;99.90
25208;DHT22;13153;52.316;21.166;2022-11-06T10:22:40;10.00;99.90
25208;DHT22;13153;52.316;21.166;2022-11-06T10:25:23;9.90;99.90
25208;DHT22;13153;52.316;21.166;2022-11-06T10:31:02;10.00;99.90
25208;DHT22;13153;52.316;21.166;2022-11-06T10:34:02;10.10;99.90
25208;DHT22;13153;52.316;21.166;2022-11-06T10:37:22;10.10;99.90
25208;DHT22;13153;52.316;21.166;2022-11-06T10:39:53;10.20;99.90
25208;DHT22;13153;52.316;21.166;2022-11-06T10:42:28;10.30;99.90
25208;DHT22;13153;52.316;21.166;2022-11-06T10:45:09;10.40;99.90
25208;DHT22;13153;52.316;21.166;2022-11-06T10:47:44;10.50;99.90
25208;DHT22;13153;52.316;21.166;2022-11-06T10:50:16;10.50;99.90
25208;DHT22;13153;52.316;21.166;2022-11-06T10:52:52;10.60;99.90
25208;DHT22;13153;52.316;21.166;2022-11-06T10:58:26;10.70;99.90
25208;DHT22;13153;52.316;21.166;2022-11-06T11:01:01;10.80;99.90
25208;DHT22;13153;52.316;21.166;2022-11-06T11:03:38;10.90;99.90
25208;DHT22;13153;52.316;21.166;2022-11-06T11:06:06;11.00;99.90
25208;DHT22;13153;52.316;21.166;2022-11-06T11:08:35;11.00;99.90
25208;DHT22;13153;52.316;21.166;2022-11-06T11:13:39;11.20;99.90
25208;DHT22;13153;52.316;21.166;2022-11-06T11:16:23;11.30;99.90
25208;DHT22;13153;52.316;21.166;2022-11-06T11:18:53;11.30;99.90
25208;DHT22;13153;52.316;21.166;2022-11-06T11:21:21;11.40;99.90
25208;DHT22;13153;52.316;21.166;2022-11-06T11:24:08;11.50;99.90
25208;DHT22;13153;52.316;21.166;2022-11-06T11:26:38;11.50;99.90
25208;DHT22;13153;52.316;21.166;2022-11-06T11:32:07;11.50;99.90
25208;DHT22;13153;52.316;21.166;2022-11-06T11:34:36;11.40;99.90
25208;DHT22;13153;52.316;21.166;2022-11-06T11:37:29;11.40;99.90
25208;DHT22;13153;52.316;21.166;2022-11-06T11:40:25;11.30;99.90
25208;DHT22;13153;52.316;21.166;2022-11-06T11:42:53;11.30;99.90
25208;DHT22;13153;52.316;21.166;2022-11-06T11:45:20;11.30;99.90
25208;DHT22;13153;52.316;21.166;2022-11-06T11:47:48;11.20;99.90
25208;DHT22;13153;52.316;21.166;2022-11-06T11:50:29;11.20;99.90
25208;DHT22;13153;52.316;21.166;2022-11-06T11:53:12;11.10;99.90
25208;DHT22;13153;52.316;21.166;2022-11-06T11:55:46;11.00;99.90
25208;DHT22;13153;52.316;21.166;2022-11-06T11:58:22;11.00;99.90
25208;DHT22;13153;52.316;21.166;2022-11-06T12:00:55;10.90;99.90
25208;DHT22;13153;52.316;21.166;2022-11-06T12:03:27;10.90;99.90
25208;DHT22;13153;52.316;21.166;2022-11-06T12:06:09;10.90;99.90
25208;DHT22;13153;52.316;21.166;2022-11-06T12:08:52;10.90;99.90
25208;DHT22;13153;52.316;21.166;2022-11-06T12:11:25;10.80;99.90
25208;DHT22;13153;52.316;21.166;2022-11-06T12:14:30;10.80;99.90
25208;DHT22;13153;52.316;21.166;2022-11-06T12:19:50;10.70;99.90
25208;DHT22;13153;52.316;21.166;2022-11-06T12:22:30;10.70;99.90
25208;DHT22;13153;52.316;21.166;2022-11-06T12:25:09;10.60;99.90
25208;DHT22;13153;52.316;21.166;2022-11-06T12:27:44;10.60;99.90
25208;DHT22;13153;52.316;21.166;2022-11-06T12:30:17;10.60;99.90
25208;DHT22;13153;52.316;21.166;2022-11-06T12:35:37;10.50;99.90
25208;DHT22;13153;52.316;21.166;2022-11-06T12:38:56;10.50;99.90
25208;DHT22;13153;52.316;21.166;2022-11-06T12:41:44;10.50;99.90
25208;DHT22;13153;52.316;21.166;2022-11-06T12:44:14;10.40;99.90
25208;DHT22;13153;52.316;21.166;2022-11-06T12:49:31;10.40;99.90
25208;DHT22;13153;52.316;21.166;2022-11-06T13:00:56;10.50;99.90
25208;DHT22;13153;52.316;21.166;2022-11-06T13:09:52;10.40;99.90
25208;DHT22;13153;52.316;21.166;2022-11-06T13:13:01;10.40;99.90
25208;DHT22;13153;52.316;21.166;2022-11-06T13:15:40;10.40;99.90
25208;DHT22;13153;52.316;21.166;2022-11-06T13:18:45;10.40;99.90
25208;DHT22;13153;52.316;21.166;2022-11-06T13:21:33;10.30;99.90
25208;DHT22;13153;52.316;21.166;2022-11-06T13:24:29;10.30;99.90
25208;DHT22;13153;52.316;21.166;2022-11-06T13:27:26;10.30;99.90
25208;DHT22;13153;52.316;21.166;2022-11-06T13:30:24;10.30;99.90
25208;DHT22;13153;52.316;21.166;2022-11-06T13:33:11;10.30;99.90
25208;DHT22;13153;52.316;21.166;2022-11-06T13:35:45;10.30;99.90
25208;DHT22;13153;52.316;21.166;2022-11-06T13:40:58;10.30;99.90
25208;DHT22;13153;52.316;21.166;2022-11-06T13:43:36;10.30;99.90
25208;DHT22;13153;52.316;21.166;2022-11-06T13:49:35;10.30;99.90
25208;DHT22;13153;52.316;21.166;2022-11-06T14:03:03;10.20;99.90
25208;DHT22;13153;52.316;21.166;2022-11-06T14:08:39;10.10;99.90
25208;DHT22;13153;52.316;21.166;2022-11-06T14:11:29;10.00;99.90
25208;DHT22;13153;52.316;21.166;2022-11-06T14:14:04;10.00;99.90
25208;DHT22;13153;52.316;21.166;2022-11-06T14:16:33;9.90;99.90
25208;DHT22;13153;52.316;21.166;2022-11-06T14:19:16;9.80;99.90
25208;DHT22;13153;52.316;21.166;2022-11-06T14:21:52;9.80;99.90
25208;DHT22;13153;52.316;21.166;2022-11-06T14:24:29;9.80;99.90
25208;DHT22;13153;52.316;21.166;2022-11-06T14:26:59;9.70;99.90
25208;DHT22;13153;52.316;21.166;2022-11-06T14:34:30;9.60;99.90
25208;DHT22;13153;52.316;21.166;2022-11-06T14:36:57;9.60;99.90
25208;DHT22;13153;52.316;21.166;2022-11-06T14:47:38;9.50;99.90
25208;DHT22;13153;52.316;21.166;2022-11-06T14:50:23;9.40;99.90
25208;DHT22;13153;52.316;21.166;2022-11-06T14:53:33;9.40;99.90
25208;DHT22;13153;52.316;21.166;2022-11-06T14:56:08;9.40;99.90
25208;DHT22;13153;52.316;21.166;2022-11-06T14:58:46;9.40;99.90
25208;DHT22;13153;52.316;21.166;2022-11-06T15:01:28;9.30;99.90
25208;DHT22;13153;52.316;21.166;2022-11-06T15:04:05;9.30;99.90
25208;DHT22;13153;52.316;21.166;2022-11-06T15:06:46;9.20;99.90
25208;DHT22;13153;52.316;21.166;2022-11-06T15:11:53;9.10;99.90
25208;DHT22;13153;52.316;21.166;2022-11-06T15:17:02;9.00;99.90
25208;DHT22;13153;52.316;21.166;2022-11-06T15:19:38;8.90;99.90
25208;DHT22;13153;52.316;21.166;2022-11-06T15:22:26;8.80;99.90
25208;DHT22;13153;52.316;21.166;2022-11-06T15:28:11;8.70;99.90
25208;DHT22;13153;52.316;21.166;2022-11-06T15:33:46;8.60;99.90
25208;DHT22;13153;52.316;21.166;2022-11-06T15:36:13;8.50;99.90
25208;DHT22;13153;52.316;21.166;2022-11-06T15:38:43;8.50;99.90
25208;DHT22;13153;52.316;21.166;2022-11-06T15:41:35;8.40;99.90
25208;DHT22;13153;52.316;21.166;2022-11-06T15:44:02;8.40;99.90
25208;DHT22;13153;52.316;21.166;2022-11-06T15:46:29;8.40;99.90
25208;DHT22;13153;52.316;21.166;2022-11-06T15:49:23;8.40;99.90
25208;DHT22;13153;52.316;21.166;2022-11-06T15:51:55;8.30;99.90
25208;DHT22;13153;52.316;21.166;2022-11-06T15:56:55;8.20;99.90
25208;DHT22;13153;52.316;21.166;2022-11-06T15:59:22;8.20;99.90
25208;DHT22;13153;52.316;21.166;2022-11-06T16:01:48;8.20;99.90
25208;DHT22;13153;52.316;21.166;2022-11-06T16:04:23;8.10;99.90
25208;DHT22;13153;52.316;21.166;2022-11-06T16:06:52;8.10;99.90
25208;DHT22;13153;52.316;21.166;2022-11-06T16:09:22;8.10;99.90
25208;DHT22;13153;52.316;21.166;2022-11-06T16:11:51;8.10;99.90
25208;DHT22;13153;52.316;21.166;2022-11-06T16:14:19;8.10;99.90
25208;DHT22;13153;52.316;21.166;2022-11-06T16:16:50;8.00;99.90
25208;DHT22;13153;52.316;21.166;2022-11-06T16:19:34;8.00;99.90
25208;DHT22;13153;52.316;21.166;2022-11-06T16:22:11;8.00;99.90
25208;DHT22;13153;52.316;21.166;2022-11-06T16:24:44;8.00;99.90
25208;DHT22;13153;52.316;21.166;2022-11-06T16:27:14;7.90;99.90
25208;DHT22;13153;52.316;21.166;2022-11-06T16:29:48;7.90;99.90
25208;DHT22;13153;52.316;21.166;2022-11-06T16:32:23;7.80;99.90
25208;DHT22;13153;52.316;21.166;2022-11-06T16:34:52;7.80;99.90
25208;DHT22;13153;52.316;21.166;2022-11-06T16:39:55;7.70;99.90
25208;DHT22;13153;52.316;21.166;2022-11-06T16:45:18;7.70;99.90
25208;DHT22;13153;52.316;21.166;2022-11-06T16:50:51;7.60;99.90
25208;DHT22;13153;52.316;21.166;2022-11-06T16:53:26;7.60;99.90
25208;DHT22;13153;52.316;21.166;2022-11-06T16:58:24;7.60;99.90
25208;DHT22;13153;52.316;21.166;2022-11-06T17:01:00;7.60;99.90
25208;DHT22;13153;52.316;21.166;2022-11-06T17:03:33;7.60;99.90
25208;DHT22;13153;52.316;21.166;2022-11-06T17:06:22;7.60;99.90
25208;DHT22;13153;52.316;21.166;2022-11-06T17:09:29;7.60;99.90
25208;DHT22;13153;52.316;21.166;2022-11-06T17:11:58;7.60;99.90
25208;DHT22;13153;52.316;21.166;2022-11-06T17:14:26;7.60;99.90
25208;DHT22;13153;52.316;21.166;2022-11-06T17:16:57;7.60;99.90
25208;DHT22;13153;52.316;21.166;2022-11-06T17:19:25;7.60;99.90
25208;DHT22;13153;52.316;21.166;2022-11-06T17:21:52;7.60;99.90
25208;DHT22;13153;52.316;21.166;2022-11-06T17:24:19;7.50;99.90
25208;DHT22;13153;52.316;21.166;2022-11-06T17:26:53;7.50;99.90
25208;DHT22;13153;52.316;21.166;2022-11-06T17:29:19;7.50;99.90
25208;DHT22;13153;52.316;21.166;2022-11-06T17:31:45;7.50;99.90
25208;DHT22;13153;52.316;21.166;2022-11-06T17:34:11;7.50;99.90
25208;DHT22;13153;52.316;21.166;2022-11-06T17:36:37;7.40;99.90
25208;DHT22;13153;52.316;21.166;2022-11-06T17:39:06;7.40;99.90
25208;DHT22;13153;52.316;21.166;2022-11-06T17:41:32;7.40;99.90
25208;DHT22;13153;52.316;21.166;2022-11-06T17:46:29;7.30;99.90
25208;DHT22;13153;52.316;21.166;2022-11-06T17:48:59;7.30;99.90
25208;DHT22;13153;52.316;21.166;2022-11-06T17:51:27;7.30;99.90
25208;DHT22;13153;52.316;21.166;2022-11-06T17:54:11;7.20;99.90
25208;DHT22;13153;52.316;21.166;2022-11-06T17:56:38;7.20;99.90
25208;DHT22;13153;52.316;21.166;2022-11-06T17:59:06;7.10;99.90
25208;DHT22;13153;52.316;21.166;2022-11-06T18:01:32;7.10;99.90
25208;DHT22;13153;52.316;21.166;2022-11-06T18:03:58;7.00;99.90
25208;DHT22;13153;52.316;21.166;2022-11-06T18:06:24;7.00;99.90
25208;DHT22;13153;52.316;21.166;2022-11-06T18:08:58;6.90;99.90
25208;DHT22;13153;52.316;21.166;2022-11-06T18:11:25;6.80;99.90
25208;DHT22;13153;52.316;21.166;2022-11-06T18:13:52;6.70;99.90
25208;DHT22;13153;52.316;21.166;2022-11-06T18:16:22;6.70;99.90
25208;DHT22;13153;52.316;21.166;2022-11-06T18:18:52;6.70;99.90
25208;DHT22;13153;52.316;21.166;2022-11-06T18:21:18;6.60;99.90
25208;DHT22;13153;52.316;21.166;2022-11-06T18:23:44;6.60;99.90
25208;DHT22;13153;52.316;21.166;2022-11-06T18:26:10;6.60;99.90
25208;DHT22;13153;52.316;21.166;2022-11-06T18:28:37;6.60;99.90
25208;DHT22;13153;52.316;21.166;2022-11-06T18:31:03;6.60;99.90
25208;DHT22;13153;52.316;21.166;2022-11-06T18:33:29;6.50;99.90
25208;DHT22;13153;52.316;21.166;2022-11-06T18:36:00;6.50;99.90
25208;DHT22;13153;52.316;21.166;2022-11-06T18:38:30;6.50;99.90